Summerfield, Texas
Current Conditions -  °F | °C
As of 7:35 AM on Saturday 20 Dec 2014 (Local Time) from KHRX Reporting Station
Moderate Fog Moderate Fog  
Wind Chill: -4°   Ceiling: 100
Heat Index:   Visibility: 0.25mi
Dew Point:   Wind: 7mph
Humidity: 100%   Direction: 200°SSW
Pressure: 30.1"   Gusts: NA
Location:  34.74°N, 102.51°W
Report Text: KHRX 201335Z AUTO 20006KT 1/4SM FG OVC001 00/00 A3010 RMK AO2 T00000000
Loading
Personal Weather Stations






























Interactive Weather Map New forecast layout! Learn more

10-Day Weather Forecast

Advertisements
Track Severe Weather on mobile